PWSweather.com
Personal Weather Stations
Station Observations
UISISLE1
Newport, Isle ofWight, ISLE OF WIGHT PO30 2JX

NewportIsle ofWight, ISLE OF WIGHT PO30 2JX

Lat: 50.72, Lon: -1.27

Elevation: 45

Station Type: Davis Vantage Pro Plus

http://www.isleofwightweather.co.uk

High Low Average
Temperature 59.7°F15.4°C 45.9°F7.7°C 51.8°F11.0°C
Dew Point 44.8°F7.1°C 41.6°F5.3°C 43.1°F6.2°C
Winds 9.9 mph 15.9 kmh Calm Calm 4.0 mph NW6.4 kmh NW
Wind Gusts 13.4 mph21.6 kmh -- 7.0 mph11.3 kmh
Humidity 87% 53% 73%
Pressure 30.38 in1028.8 mb 30.22 in1023.4 mb -
Precipitation 0.00 in0.0 mm - -
Hour Temp Dew Point Humidity Winds Wind Gusts Pressure Precip Precip Rate Daily Precip Total
12:00 AM 48.4°F9.1°C 42.2°F5.7°C 79% 3.9 mph N6.3 kmh N 5.1 mph8.2 kmh 30.22 in1023.4 mb - 0.00 in0.0 mm 0.00 in0.0 mm
12:15 AM 48.2°F9.0°C 42.3°F5.7°C 80% 5.2 mph NW8.4 kmh NW 7.2 mph11.6 kmh 30.23 in1023.7 mb - 0.00 in0.0 mm 0.00 in0.0 mm
12:30 AM 48.1°F8.9°C 42.5°F5.8°C 81% 4.7 mph NNW7.6 kmh NNW 7.2 mph11.6 kmh 30.23 in1023.7 mb - 0.00 in0.0 mm 0.00 in0.0 mm
12:45 AM 48.0°F8.9°C 42.8°F6.0°C 82% 4.5 mph NNW7.2 kmh NNW 4.1 mph6.6 kmh 30.24 in1024.0 mb - 0.00 in0.0 mm 0.00 in0.0 mm
01:00 AM 47.9°F8.8°C 42.7°F5.9°C 82% 4.8 mph NNW7.7 kmh NNW 8.2 mph13.2 kmh 30.24 in1024.0 mb - 0.00 in0.0 mm 0.00 in0.0 mm
01:15 AM 47.8°F8.8°C 42.6°F5.9°C 82% 5.0 mph NNW8.0 kmh NNW 10.3 mph16.6 kmh 30.24 in1024.0 mb - 0.00 in0.0 mm 0.00 in0.0 mm
01:30 AM 47.8°F8.8°C 42.6°F5.9°C 82% 4.9 mph NNW7.9 kmh NNW 8.2 mph13.2 kmh 30.24 in1024.0 mb - 0.00 in0.0 mm 0.00 in0.0 mm
01:45 AM 47.7°F8.7°C 42.5°F5.8°C 82% 3.5 mph NNW5.6 kmh NNW 6.2 mph10.0 kmh 30.24 in1024.0 mb - 0.00 in0.0 mm 0.00 in0.0 mm
02:00 AM 47.5°F8.6°C 42.6°F5.9°C 83% 6.7 mph NW10.8 kmh NW 10.3 mph16.6 kmh 30.25 in1024.4 mb - 0.00 in0.0 mm 0.00 in0.0 mm
02:15 AM 47.4°F8.6°C 42.2°F5.7°C 82% 4.1 mph NW6.6 kmh NW 7.2 mph11.6 kmh 30.25 in1024.4 mb - 0.00 in0.0 mm 0.00 in0.0 mm
02:30 AM 47.2°F8.4°C 42.3°F5.7°C 83% 3.0 mph NNW4.8 kmh NNW 5.1 mph8.2 kmh 30.24 in1024.0 mb - 0.00 in0.0 mm 0.00 in0.0 mm
02:45 AM 47.1°F8.4°C 42.2°F5.7°C 83% 7.0 mph NNW11.3 kmh NNW 9.3 mph15.0 kmh 30.24 in1024.0 mb - 0.00 in0.0 mm 0.00 in0.0 mm
03:00 AM 47.0°F8.3°C 42.1°F5.6°C 83% 5.5 mph WNW8.9 kmh WNW 7.2 mph11.6 kmh 30.25 in1024.4 mb - 0.00 in0.0 mm 0.00 in0.0 mm
03:15 AM 46.8°F8.2°C 41.9°F5.5°C 83% 3.3 mph NW5.3 kmh NW 4.1 mph6.6 kmh 30.24 in1024.0 mb - 0.00 in0.0 mm 0.00 in0.0 mm
03:30 AM 46.6°F8.1°C 41.7°F5.4°C 83% 3.2 mph NNW5.1 kmh NNW 6.2 mph10.0 kmh 30.25 in1024.4 mb - 0.00 in0.0 mm 0.00 in0.0 mm
03:45 AM 46.5°F8.1°C 41.9°F5.5°C 84% 4.2 mph NNW6.8 kmh NNW 6.2 mph10.0 kmh 30.25 in1024.4 mb - 0.00 in0.0 mm 0.00 in0.0 mm
04:00 AM 46.4°F8.0°C 41.8°F5.4°C 84% 5.1 mph NW8.2 kmh NW 10.3 mph16.6 kmh 30.26 in1024.7 mb - 0.00 in0.0 mm 0.00 in0.0 mm
04:15 AM 46.3°F7.9°C 41.7°F5.4°C 84% 6.0 mph NW9.7 kmh NW 9.3 mph15.0 kmh 30.26 in1024.7 mb - 0.00 in0.0 mm 0.00 in0.0 mm
04:30 AM 46.4°F8.0°C 41.8°F5.4°C 84% 6.1 mph NNW9.8 kmh NNW 8.2 mph13.2 kmh 30.27 in1025.1 mb - 0.00 in0.0 mm 0.00 in0.0 mm
04:45 AM 46.4°F8.0°C 41.8°F5.4°C 84% 4.9 mph NNW7.9 kmh NNW 7.2 mph11.6 kmh 30.28 in1025.4 mb - 0.00 in0.0 mm 0.00 in0.0 mm
05:00 AM 46.3°F7.9°C 41.7°F5.4°C 84% 5.2 mph N8.4 kmh N 7.2 mph11.6 kmh 30.28 in1025.4 mb - 0.00 in0.0 mm 0.00 in0.0 mm
05:15 AM 46.2°F7.9°C 41.6°F5.3°C 84% 4.9 mph NW7.9 kmh NW 6.2 mph10.0 kmh 30.28 in1025.4 mb - 0.00 in0.0 mm 0.00 in0.0 mm
05:30 AM 46.1°F7.8°C 41.8°F5.4°C 85% 4.4 mph NNW7.1 kmh NNW 6.2 mph10.0 kmh 30.29 in1025.7 mb - 0.00 in0.0 mm 0.00 in0.0 mm
05:45 AM 46.0°F7.8°C 41.7°F5.4°C 85% 3.3 mph NNW5.3 kmh NNW 6.2 mph10.0 kmh 30.30 in1026.1 mb - 0.00 in0.0 mm 0.00 in0.0 mm
06:00 AM 45.9°F7.7°C 41.6°F5.3°C 85% 2.4 mph NNW3.9 kmh NNW 4.1 mph6.6 kmh 30.30 in1026.1 mb - 0.00 in0.0 mm 0.00 in0.0 mm
06:15 AM 46.0°F7.8°C 42.0°F5.6°C 86% 3.9 mph N6.3 kmh N 5.1 mph8.2 kmh 30.31 in1026.4 mb - 0.00 in0.0 mm 0.00 in0.0 mm
06:30 AM 46.3°F7.9°C 42.3°F5.7°C 86% 3.6 mph NNW5.8 kmh NNW 5.1 mph8.2 kmh 30.31 in1026.4 mb - 0.00 in0.0 mm 0.00 in0.0 mm
06:45 AM 46.4°F8.0°C 42.4°F5.8°C 86% 5.1 mph N8.2 kmh N 6.2 mph10.0 kmh 30.32 in1026.8 mb - 0.00 in0.0 mm 0.00 in0.0 mm
07:00 AM 46.7°F8.2°C 43.0°F6.1°C 87% 7.4 mph N11.9 kmh N 9.3 mph15.0 kmh 30.32 in1026.8 mb - 0.00 in0.0 mm 0.00 in0.0 mm
07:15 AM 47.2°F8.4°C 43.2°F6.2°C 86% 8.9 mph NNW14.3 kmh NNW 9.3 mph15.0 kmh 30.33 in1027.1 mb - 0.00 in0.0 mm 0.00 in0.0 mm
07:30 AM 47.6°F8.7°C 43.6°F6.4°C 86% 6.5 mph N10.5 kmh N 9.3 mph15.0 kmh 30.33 in1027.1 mb - 0.00 in0.0 mm 0.00 in0.0 mm
07:45 AM 47.9°F8.8°C 43.6°F6.4°C 85% 8.6 mph N13.8 kmh N 10.3 mph16.6 kmh 30.34 in1027.4 mb - 0.00 in0.0 mm 0.00 in0.0 mm
08:00 AM 48.6°F9.2°C 44.0°F6.7°C 84% 6.2 mph NNW10.0 kmh NNW 10.3 mph16.6 kmh 30.35 in1027.8 mb - 0.00 in0.0 mm 0.00 in0.0 mm
08:15 AM 49.5°F9.7°C 44.6°F7.0°C 83% 5.5 mph NW8.9 kmh NW 7.2 mph11.6 kmh 30.36 in1028.1 mb - 0.00 in0.0 mm 0.00 in0.0 mm
08:30 AM 50.2°F10.1°C 44.3°F6.8°C 80% 6.6 mph N10.6 kmh N 7.2 mph11.6 kmh 30.36 in1028.1 mb - 0.00 in0.0 mm 0.00 in0.0 mm
08:45 AM 50.8°F10.4°C 44.2°F6.8°C 78% 8.3 mph NNW13.4 kmh NNW 10.3 mph16.6 kmh 30.37 in1028.4 mb - 0.00 in0.0 mm 0.00 in0.0 mm
09:00 AM 51.2°F10.7°C 43.9°F6.6°C 76% 7.5 mph NNW12.1 kmh NNW 9.3 mph15.0 kmh 30.37 in1028.4 mb - 0.00 in0.0 mm 0.00 in0.0 mm
09:15 AM 51.8°F11.0°C 44.2°F6.8°C 75% 6.3 mph NNW10.1 kmh NNW 8.2 mph13.2 kmh 30.37 in1028.4 mb - 0.00 in0.0 mm 0.00 in0.0 mm
09:30 AM 52.5°F11.4°C 44.1°F6.7°C 73% 5.7 mph NNW9.2 kmh NNW 9.3 mph15.0 kmh 30.38 in1028.8 mb - 0.00 in0.0 mm 0.00 in0.0 mm
09:45 AM 53.1°F11.7°C 44.3°F6.8°C 72% 4.2 mph N6.8 kmh N 10.3 mph16.6 kmh 30.38 in1028.8 mb - 0.00 in0.0 mm 0.00 in0.0 mm
10:00 AM 53.8°F12.1°C 44.2°F6.8°C 70% 7.0 mph NW11.3 kmh NW 10.3 mph16.6 kmh 30.38 in1028.8 mb - 0.00 in0.0 mm 0.00 in0.0 mm
10:15 AM 54.2°F12.3°C 43.9°F6.6°C 68% 5.7 mph NW9.2 kmh NW 8.2 mph13.2 kmh 30.38 in1028.8 mb - 0.00 in0.0 mm 0.00 in0.0 mm
10:30 AM 54.8°F12.7°C 44.0°F6.7°C 67% 6.0 mph NNW9.7 kmh NNW 13.4 mph21.6 kmh 30.38 in1028.8 mb - 0.00 in0.0 mm 0.00 in0.0 mm
10:45 AM 55.2°F12.9°C 43.6°F6.4°C 65% 6.5 mph NNW10.5 kmh NNW 9.3 mph15.0 kmh 30.38 in1028.8 mb - 0.00 in0.0 mm 0.00 in0.0 mm
11:00 AM 55.5°F13.1°C 43.1°F6.2°C 63% 9.9 mph N15.9 kmh N 13.4 mph21.6 kmh 30.38 in1028.8 mb - 0.00 in0.0 mm 0.00 in0.0 mm
11:15 AM 55.8°F13.2°C 43.4°F6.3°C 63% 6.8 mph N10.9 kmh N 10.3 mph16.6 kmh 30.37 in1028.4 mb - 0.00 in0.0 mm 0.00 in0.0 mm
11:30 AM 56.5°F13.6°C 44.0°F6.7°C 63% 7.7 mph NNW12.4 kmh NNW 8.2 mph13.2 kmh 30.37 in1028.4 mb - 0.00 in0.0 mm 0.00 in0.0 mm
11:45 AM 56.9°F13.8°C 44.0°F6.7°C 62% 6.0 mph NW9.7 kmh NW 9.3 mph15.0 kmh 30.36 in1028.1 mb - 0.00 in0.0 mm 0.00 in0.0 mm
12:00 PM 57.4°F14.1°C 43.2°F6.2°C 59% 8.3 mph N13.4 kmh N 8.2 mph13.2 kmh 30.36 in1028.1 mb - 0.00 in0.0 mm 0.00 in0.0 mm
12:15 PM 57.6°F14.2°C 42.5°F5.8°C 57% 8.1 mph NNW13.0 kmh NNW 11.3 mph18.2 kmh 30.36 in1028.1 mb - 0.00 in0.0 mm 0.00 in0.0 mm
12:30 PM 57.4°F14.1°C 43.1°F6.2°C 59% 5.4 mph NNW8.7 kmh NNW 9.3 mph15.0 kmh 30.36 in1028.1 mb - 0.00 in0.0 mm 0.00 in0.0 mm
12:45 PM 57.5°F14.2°C 43.3°F6.3°C 59% 7.4 mph NW11.9 kmh NW 9.3 mph15.0 kmh 30.35 in1027.8 mb - 0.00 in0.0 mm 0.00 in0.0 mm
01:00 PM 57.5°F14.2°C 42.8°F6.0°C 58% 4.4 mph NW7.1 kmh NW 8.2 mph13.2 kmh 30.35 in1027.8 mb - 0.00 in0.0 mm 0.00 in0.0 mm
01:15 PM 57.5°F14.2°C 42.8°F6.0°C 58% 3.2 mph WSW5.1 kmh WSW 11.3 mph18.2 kmh 30.35 in1027.8 mb - 0.00 in0.0 mm 0.00 in0.0 mm
01:30 PM 58.1°F14.5°C 44.3°F6.8°C 60% 6.2 mph NW10.0 kmh NW 12.4 mph20.0 kmh 30.35 in1027.8 mb - 0.00 in0.0 mm 0.00 in0.0 mm
01:45 PM 59.0°F15.0°C 43.4°F6.3°C 56% 4.8 mph N7.7 kmh N 7.2 mph11.6 kmh 30.35 in1027.8 mb - 0.00 in0.0 mm 0.00 in0.0 mm
02:00 PM 59.5°F15.3°C 43.4°F6.3°C 55% 5.6 mph NNW9.0 kmh NNW 11.3 mph18.2 kmh 30.35 in1027.8 mb - 0.00 in0.0 mm 0.00 in0.0 mm
02:15 PM 58.9°F14.9°C 43.2°F6.2°C 56% 5.7 mph NNW9.2 kmh NNW 12.4 mph20.0 kmh 30.35 in1027.8 mb - 0.00 in0.0 mm 0.00 in0.0 mm
02:30 PM 59.5°F15.3°C 44.2°F6.8°C 57% 3.3 mph NNW5.3 kmh NNW 11.3 mph18.2 kmh 30.35 in1027.8 mb - 0.00 in0.0 mm 0.00 in0.0 mm
02:45 PM 59.7°F15.4°C 42.6°F5.9°C 53% 7.8 mph N12.6 kmh N 11.3 mph18.2 kmh 30.34 in1027.4 mb - 0.00 in0.0 mm 0.00 in0.0 mm
03:00 PM 58.6°F14.8°C 42.5°F5.8°C 55% 2.8 mph NNW4.5 kmh NNW 4.1 mph6.6 kmh 30.34 in1027.4 mb - 0.00 in0.0 mm 0.00 in0.0 mm
03:15 PM 58.2°F14.6°C 43.0°F6.1°C 57% 2.5 mph NNW4.0 kmh NNW 4.1 mph6.6 kmh 30.33 in1027.1 mb - 0.00 in0.0 mm 0.00 in0.0 mm
03:30 PM 58.7°F14.8°C 43.0°F6.1°C 56% 5.4 mph WNW8.7 kmh WNW 10.3 mph16.6 kmh 30.33 in1027.1 mb - 0.00 in0.0 mm 0.00 in0.0 mm
03:45 PM 58.3°F14.6°C 42.7°F5.9°C 56% 1.4 mph NW2.3 kmh NW 2.1 mph3.4 kmh 30.34 in1027.4 mb - 0.00 in0.0 mm 0.00 in0.0 mm
04:00 PM 57.8°F14.3°C 43.1°F6.2°C 58% 0.4 mph NW0.6 kmh NW 2.1 mph3.4 kmh 30.33 in1027.1 mb - 0.00 in0.0 mm 0.00 in0.0 mm
04:15 PM 57.4°F14.1°C 42.3°F5.7°C 57% 2.4 mph NNW3.9 kmh NNW 6.2 mph10.0 kmh 30.33 in1027.1 mb - 0.00 in0.0 mm 0.00 in0.0 mm
04:30 PM 57.2°F14.0°C 43.0°F6.1°C 59% 1.0 mph NW1.6 kmh NW 3.1 mph5.0 kmh 30.33 in1027.1 mb - 0.00 in0.0 mm 0.00 in0.0 mm
04:45 PM 57.1°F13.9°C 42.9°F6.1°C 59% 0.9 mph WNW1.4 kmh WNW 2.1 mph3.4 kmh 30.32 in1026.8 mb - 0.00 in0.0 mm 0.00 in0.0 mm
05:00 PM 56.9°F13.8°C 43.2°F6.2°C 60% 1.2 mph WNW1.9 kmh WNW 3.1 mph5.0 kmh 30.32 in1026.8 mb - 0.00 in0.0 mm 0.00 in0.0 mm
05:15 PM 56.7°F13.7°C 43.4°F6.3°C 61% 0.8 mph W1.3 kmh W 2.1 mph3.4 kmh 30.33 in1027.1 mb - 0.00 in0.0 mm 0.00 in0.0 mm
05:30 PM 56.3°F13.5°C 43.9°F6.6°C 63% 0.3 mph W0.5 kmh W 1.0 mph1.6 kmh 30.33 in1027.1 mb - 0.00 in0.0 mm 0.00 in0.0 mm
05:45 PM 55.5°F13.1°C 43.5°F6.4°C 64% 0.1 mph W0.2 kmh W 1.0 mph1.6 kmh 30.33 in1027.1 mb - 0.00 in0.0 mm 0.00 in0.0 mm
06:00 PM 54.5°F12.5°C 43.4°F6.3°C 66% Calm Calm -- 30.33 in1027.1 mb - 0.00 in0.0 mm 0.00 in0.0 mm
06:15 PM 53.6°F12.0°C 43.3°F6.3°C 68% 1.0 mph W1.6 kmh W 3.1 mph5.0 kmh 30.33 in1027.1 mb - 0.00 in0.0 mm 0.00 in0.0 mm
06:30 PM 52.9°F11.6°C 43.4°F6.3°C 70% 0.3 mph WNW0.5 kmh WNW 2.1 mph3.4 kmh 30.33 in1027.1 mb - 0.00 in0.0 mm 0.00 in0.0 mm
06:45 PM 52.5°F11.4°C 43.7°F6.5°C 72% 0.3 mph WNW0.5 kmh WNW -- 30.33 in1027.1 mb - 0.00 in0.0 mm 0.00 in0.0 mm
07:00 PM 52.3°F11.3°C 43.9°F6.6°C 73% 1.0 mph WNW1.6 kmh WNW 2.1 mph3.4 kmh 30.32 in1026.8 mb - 0.00 in0.0 mm 0.00 in0.0 mm
07:15 PM 51.8°F11.0°C 43.4°F6.3°C 73% 0.7 mph WSW1.1 kmh WSW 1.0 mph1.6 kmh 30.32 in1026.8 mb - 0.00 in0.0 mm 0.00 in0.0 mm
07:30 PM 51.3°F10.7°C 43.3°F6.3°C 74% 3.0 mph WNW4.8 kmh WNW 6.2 mph10.0 kmh 30.33 in1027.1 mb - 0.00 in0.0 mm 0.00 in0.0 mm
07:45 PM 51.7°F10.9°C 44.4°F6.9°C 76% 1.1 mph WNW1.8 kmh WNW 2.1 mph3.4 kmh 30.32 in1026.8 mb - 0.00 in0.0 mm 0.00 in0.0 mm
08:00 PM 51.7°F10.9°C 44.4°F6.9°C 76% 1.6 mph NW2.6 kmh NW 3.1 mph5.0 kmh 30.32 in1026.8 mb - 0.00 in0.0 mm 0.00 in0.0 mm
08:15 PM 51.6°F10.9°C 44.3°F6.8°C 76% 2.6 mph NW4.2 kmh NW 3.1 mph5.0 kmh 30.32 in1026.8 mb - 0.00 in0.0 mm 0.00 in0.0 mm
08:30 PM 51.8°F11.0°C 44.8°F7.1°C 77% 5.4 mph W8.7 kmh W 9.3 mph15.0 kmh 30.32 in1026.8 mb - 0.00 in0.0 mm 0.00 in0.0 mm
08:45 PM 51.7°F10.9°C 44.4°F6.9°C 76% 3.4 mph WNW5.5 kmh WNW 5.1 mph8.2 kmh 30.32 in1026.8 mb - 0.00 in0.0 mm 0.00 in0.0 mm
09:00 PM 51.4°F10.8°C 44.1°F6.7°C 76% 3.5 mph W5.6 kmh W 7.2 mph11.6 kmh 30.32 in1026.8 mb - 0.00 in0.0 mm 0.00 in0.0 mm
09:15 PM 51.1°F10.6°C 43.8°F6.6°C 76% 2.0 mph W3.2 kmh W 5.1 mph8.2 kmh 30.31 in1026.4 mb - 0.00 in0.0 mm 0.00 in0.0 mm
09:30 PM 50.8°F10.4°C 43.5°F6.4°C 76% 1.8 mph NW2.9 kmh NW 4.1 mph6.6 kmh 30.31 in1026.4 mb - 0.00 in0.0 mm 0.00 in0.0 mm
09:45 PM 50.5°F10.3°C 43.5°F6.4°C 77% 1.6 mph W2.6 kmh W 3.1 mph5.0 kmh 30.31 in1026.4 mb - 0.00 in0.0 mm 0.00 in0.0 mm
10:00 PM 50.1°F10.1°C 43.1°F6.2°C 77% 2.4 mph WSW3.9 kmh WSW 5.1 mph8.2 kmh 30.30 in1026.1 mb - 0.00 in0.0 mm 0.00 in0.0 mm
10:15 PM 49.7°F9.8°C 42.8°F6.0°C 77% 1.9 mph W3.1 kmh W 2.0 mph3.2 kmh 30.31 in1026.4 mb - 0.00 in0.0 mm 0.00 in0.0 mm
10:30 PM 49.6°F9.8°C 43.0°F6.1°C 78% 2.9 mph W4.7 kmh W 5.1 mph8.2 kmh 30.29 in1025.7 mb - 0.00 in0.0 mm 0.00 in0.0 mm
10:45 PM 49.6°F9.8°C 43.0°F6.1°C 78% 3.7 mph W6.0 kmh W 7.2 mph11.6 kmh 30.29 in1025.7 mb - 0.00 in0.0 mm 0.00 in0.0 mm
11:00 PM 49.6°F9.8°C 43.4°F6.3°C 79% 2.8 mph W4.5 kmh W 4.1 mph6.6 kmh 30.29 in1025.7 mb - 0.00 in0.0 mm 0.00 in0.0 mm
11:15 PM 49.7°F9.8°C 43.5°F6.4°C 79% 3.1 mph W5.0 kmh W 8.2 mph13.2 kmh 30.29 in1025.7 mb - 0.00 in0.0 mm 0.00 in0.0 mm
11:30 PM 49.8°F9.9°C 43.6°F6.4°C 79% 2.8 mph WSW4.5 kmh WSW 4.0 mph6.4 kmh 30.29 in1025.7 mb - 0.00 in0.0 mm 0.00 in0.0 mm
11:45 PM 50.0°F10.0°C 43.7°F6.5°C 79% 2.8 mph WSW4.5 kmh WSW 8.0 mph12.9 kmh 30.28 in1025.4 mb - 0.00 in0.0 mm 0.00 in0.0 mm